LPPTLPFR

Guest
Details From LPPT - Lisboa
To LPFR - Faro
Flight Number -
Tags generated
Created
Modified
Stats Distance 120 nm / 222 km
Max Altitude 6,800 ft / 2,073 m
Waypoints 3
Social Downloads 42
Likes 0
Share

Download

Looking for another format? Having issues loading an existing format? Contact us
Advertisement - Login to hide

Notes

Basic altitude profile: - Ascent Rate: 2500ft/min - Ascent Speed: 250kts - Cruise Altitude: 25000ft - Cruise Speed: 420kts - Descent Rate: 1500ft/min - Descent Speed: 250kts Options: - Use NATs: yes - Use PACOTS: yes - Use low airways: yes - Use high airways: yes

Route

LPPT ADSAD LPFR

ID Type Via Altitude (ft/m) Position (lat/lon) Dist (leg/tot) Name
O LPPT APT - 0 / 0 38.77856 / -9.13515 - / 0 nm Lisboa
ADSAD FIX - 6,800 / 2,073 38.47806 / -8.99778 19 / 19 nm
O LPFR APT - 0 / 0 37.01534 / -7.97233 100 / 119 nm Faro

Altitude Profile

Advertisement - Login to hide

LPPT

Details ICAO LPPT (LIS)
Name Lisbon Humberto Delgado
Region Portugal
Timezone Europe/Lisbon (UTC+0.0)
Stats Elevation 374 ft / 114 m (AMSL)
Location 38.778800° -9.135190°
Runways 2
Magnetic Variation 1.994° W

METAR

LPPT 021000Z 04003KT 350V090 9999 FEW008 14/12 Q1018

Decode

TAF

TAF LPPT 020500Z 0206/0312 30005KT CAVOK BECMG 0210/0212 04007KT

Decode

Departure Runways

ID Width Length Bearing (true/mag) Surface Threshold Overrun Markings Lighting
03 148 ft / 45 m 12,505 ft / 3,812 m 22.65° / 24.64° ASPHALT 302 ft / 92 m 0 ft / 0 m PREC-APP CENTERLINE EDGE THRESHOLD ALSF-II TDZ REIL-OMNI
17 148 ft / 45 m 7,612 ft / 2,320 m 168.14° / 170.13° ASPHALT 0 ft / 0 m 0 ft / 0 m PREC-APP CENTERLINE EDGE THRESHOLD REIL-OMNI
21 148 ft / 45 m 12,505 ft / 3,812 m 202.66° / 204.65° ASPHALT 1,965 ft / 599 m 0 ft / 0 m PREC-APP CENTERLINE EDGE THRESHOLD ALSF-II TDZ REIL-OMNI
35 148 ft / 45 m 7,612 ft / 2,320 m 348.14° / 350.14° ASPHALT 194 ft / 59 m 299 ft / 91 m PREC-APP CENTERLINE EDGE THRESHOLD ALSF-I REIL-OMNI

LPFR

Details ICAO LPFR (FAO)
Name Faro
Region Portugal
Timezone Europe/Lisbon (UTC+0.0)
Stats Elevation 22 ft / 7 m (AMSL)
Location 37.015300° -7.972320°
Runways 1
Magnetic Variation 1.582° W

METAR

LPFR 021000Z VRB01KT CAVOK 16/13 Q1017

Decode

TAF

TAF LPFR 020500Z 0206/0306 VRB02KT CAVOK BECMG 0210/0212 28008KT BECMG 0216/0218 01005KT BECMG 0221/0223 VRB02KT

Decode

Destination Runways

ID Width Length Bearing (true/mag) Surface Threshold Overrun Markings Lighting
10 148 ft / 45 m 8,179 ft / 2,493 m 100.08° / 101.66° ASPHALT 148 ft / 45 m 0 ft / 0 m PREC-APP EDGE THRESHOLD REIL-OMNI
28 148 ft / 45 m 8,179 ft / 2,493 m 280.09° / 281.68° ASPHALT 144 ft / 44 m 0 ft / 0 m PREC-APP EDGE THRESHOLD REIL-OMNI

Approach Navaids

Runway Type Ident Frequency Range Bearing (true/mag) Slope Elevation
28 DME IIF 109.50 MHz 18 nm / 33 km - - 24 ft / 7 m (AMSL)
28 LOC-ILS IIF 109.50 MHz 18 nm / 33 km 280.08° / 281.66 ° - 22 ft / 7 m (AMSL)
28 GS IIF 109.50 MHz 10 nm / 19 km 280.17° / 281.76 ° 3.00° 24 ft / 7 m (AMSL)

Popular Alternatives